Time;durP1;ratioP1;P1;durP2;ratioP2;P2;SDS_P1;SDS_P2;PMS_P1;PMS_P2;Temp;Humidity;BMP_temperature;BMP_pressure;BME280_temperature;BME280_humidity;BME280_pressure;Samples;Min_cycle;Max_cycle;Signal;HPM_P1;HPM_P2
2024/01/15 00:02:01;;;;;;;46.23;26.67;;;2.70;99.90;;;;;;5074610;28;20209;-79
2024/01/15 00:04:28;;;;;;;47.53;25.47;;;2.60;99.90;;;;;;5053526;28;20199;-79
2024/01/15 00:06:56;;;;;;;45.83;26.07;;;2.60;99.90;;;;;;5068777;28;20221;-79
2024/01/15 00:09:23;;;;;;;51.17;25.80;;;2.70;99.90;;;;;;5045106;28;20207;-79
2024/01/15 00:11:51;;;;;;;47.20;25.87;;;2.60;99.90;;;;;;5052928;28;20203;-79
2024/01/15 00:14:20;;;;;;;47.93;26.83;;;2.60;99.90;;;;;;5058354;28;20191;-78
2024/01/15 00:16:49;;;;;;;52.83;28.70;;;2.60;99.90;;;;;;5057562;28;20202;-78
2024/01/15 00:19:16;;;;;;;52.50;26.97;;;2.60;99.90;;;;;;5058285;28;20197;-79
2024/01/15 00:21:46;;;;;;;48.97;27.47;;;2.70;99.90;;;;;;5054227;28;20209;-78
2024/01/15 00:24:14;;;;;;;53.00;28.57;;;2.70;99.90;;;;;;5066800;28;20480;-78
2024/01/15 00:26:41;;;;;;;48.77;28.37;;;2.70;99.90;;;;;;5073415;28;20208;-79
2024/01/15 00:29:10;;;;;;;46.33;26.80;;;2.80;99.90;;;;;;5069268;28;20199;-78
2024/01/15 00:31:37;;;;;;;50.37;26.20;;;2.80;99.90;;;;;;5054585;28;20656;-78
2024/01/15 00:34:05;;;;;;;43.80;26.30;;;2.70;99.90;;;;;;5068069;28;20192;-78
2024/01/15 00:36:32;;;;;;;47.80;28.90;;;2.70;99.90;;;;;;5034056;28;20220;-78
2024/01/15 00:39:00;;;;;;;53.13;28.70;;;2.80;99.90;;;;;;5084056;28;20677;-78
2024/01/15 00:41:28;;;;;;;47.80;27.53;;;2.70;99.90;;;;;;5043269;28;20192;-78
2024/01/15 00:43:55;;;;;;;50.47;27.53;;;2.70;99.90;;;;;;5066344;28;20202;-78
2024/01/15 00:46:24;;;;;;;50.10;28.93;;;2.70;99.90;;;;;;5047760;28;20220;-78
2024/01/15 00:48:51;;;;;;;48.63;28.43;;;2.80;99.90;;;;;;5056179;28;20184;-78
2024/01/15 00:51:18;;;;;;;53.27;27.03;;;2.70;99.90;;;;;;5068481;28;20206;-78
2024/01/15 00:53:46;;;;;;;51.17;29.10;;;2.70;99.90;;;;;;5070304;28;20206;-78
2024/01/15 00:56:13;;;;;;;45.87;26.60;;;2.70;99.90;;;;;;5067976;28;20226;-78
2024/01/15 00:58:40;;;;;;;45.53;27.47;;;2.80;99.90;;;;;;5082536;28;20229;-78
2024/01/15 01:01:08;;;;;;;41.17;25.27;;;2.80;99.90;;;;;;5062600;28;20210;-79
2024/01/15 01:03:36;;;;;;;41.63;24.20;;;2.70;99.90;;;;;;5060927;28;20211;-79
2024/01/15 01:06:04;;;;;;;41.73;26.63;;;2.80;99.90;;;;;;5059914;28;20238;-80
2024/01/15 01:08:32;;;;;;;43.00;25.57;;;2.80;99.90;;;;;;5042550;28;20250;-78
2024/01/15 01:10:59;;;;;;;41.47;24.83;;;2.80;99.90;;;;;;5056679;28;20194;-78
2024/01/15 01:13:26;;;;;;;39.70;21.67;;;2.80;99.90;;;;;;5058347;28;20203;-78
2024/01/15 01:15:54;;;;;;;45.93;26.13;;;2.70;99.90;;;;;;5054557;28;20218;-78
2024/01/15 01:18:21;;;;;;;40.13;24.17;;;2.90;99.90;;;;;;5067855;28;20211;-79
2024/01/15 01:20:50;;;;;;;47.30;25.83;;;2.90;99.90;;;;;;5051450;28;20200;-79
2024/01/15 01:23:17;;;;;;;42.27;23.70;;;3.00;99.90;;;;;;5047144;28;20203;-79
2024/01/15 01:25:45;;;;;;;40.50;24.53;;;2.80;99.90;;;;;;5059318;28;20232;-79
2024/01/15 01:28:12;;;;;;;38.03;23.83;;;2.80;99.90;;;;;;5054029;28;20213;-78
2024/01/15 01:30:39;;;;;;;45.27;25.63;;;2.80;99.90;;;;;;5048915;28;20200;-78
2024/01/15 01:33:07;;;;;;;41.87;26.47;;;2.80;99.90;;;;;;5046755;28;20206;-79
2024/01/15 01:35:34;;;;;;;40.63;23.53;;;2.80;99.90;;;;;;5054343;28;20576;-78
2024/01/15 01:38:03;;;;;;;40.97;23.40;;;2.80;99.90;;;;;;5049991;28;20219;-79
2024/01/15 01:40:30;;;;;;;38.80;22.90;;;2.80;99.90;;;;;;5063151;28;20197;-79
2024/01/15 01:42:58;;;;;;;38.17;22.77;;;2.90;99.90;;;;;;5067984;28;20206;-78
2024/01/15 01:45:25;;;;;;;43.40;24.73;;;2.80;99.90;;;;;;5055002;28;20226;-79
2024/01/15 01:47:53;;;;;;;37.53;22.80;;;2.70;99.90;;;;;;5070556;28;20202;-79
2024/01/15 01:50:20;;;;;;;43.67;22.27;;;2.70;99.90;;;;;;5070325;28;20200;-78
2024/01/15 01:52:49;;;;;;;40.83;22.90;;;2.60;99.90;;;;;;5043869;28;20225;-78
2024/01/15 01:55:19;;;;;;;31.93;21.73;;;2.70;99.90;;;;;;5069501;28;20233;-78
2024/01/15 01:57:46;;;;;;;34.53;20.70;;;2.70;99.90;;;;;;5047925;28;20198;-78
2024/01/15 02:00:15;;;;;;;34.20;20.67;;;2.70;99.90;;;;;;5052581;28;20209;-79
2024/01/15 02:02:42;;;;;;;36.93;21.50;;;2.60;99.90;;;;;;5054090;28;20673;-79
2024/01/15 02:05:10;;;;;;;34.67;21.67;;;2.70;99.90;;;;;;5076720;28;20223;-79
2024/01/15 02:07:37;;;;;;;35.37;22.30;;;2.70;99.90;;;;;;5045702;28;20194;-79
2024/01/15 02:10:06;;;;;;;28.27;18.23;;;2.60;99.90;;;;;;5054164;28;20194;-78
2024/01/15 02:12:34;;;;;;;30.23;19.17;;;2.60;99.90;;;;;;5060502;28;20193;-79
2024/01/15 02:15:02;;;;;;;33.57;19.23;;;2.60;99.90;;;;;;5044442;28;20224;-78
2024/01/15 02:17:30;;;;;;;39.40;22.77;;;2.60;99.90;;;;;;5058664;28;20207;-78
2024/01/15 02:19:57;;;;;;;32.20;19.70;;;2.60;99.90;;;;;;5054870;28;20210;-78
2024/01/15 02:22:24;;;;;;;36.63;20.80;;;2.60;99.90;;;;;;5068324;28;20201;-78
2024/01/15 02:24:53;;;;;;;38.03;23.00;;;2.60;99.90;;;;;;5051422;28;20218;-78
2024/01/15 02:27:21;;;;;;;37.27;21.63;;;2.60;99.90;;;;;;5051736;28;20564;-78
2024/01/15 02:29:49;;;;;;;37.93;21.13;;;2.50;99.90;;;;;;5067427;28;20206;-78
2024/01/15 02:32:17;;;;;;;34.27;20.83;;;2.60;99.90;;;;;;5053410;28;20187;-79
2024/01/15 02:34:44;;;;;;;36.53;21.07;;;2.60;99.90;;;;;;5051657;28;20230;-78
2024/01/15 02:37:11;;;;;;;36.13;21.17;;;2.60;99.90;;;;;;5052549;28;20176;-78
2024/01/15 02:39:39;;;;;;;38.53;21.63;;;2.60;99.90;;;;;;5064345;28;20211;-78
2024/01/15 02:42:08;;;;;;;37.77;22.07;;;2.50;99.90;;;;;;5069877;28;20228;-78
2024/01/15 02:44:35;;;;;;;32.17;19.60;;;2.50;99.90;;;;;;5052504;28;20199;-78
2024/01/15 02:47:03;;;;;;;40.63;21.23;;;2.50;99.90;;;;;;5053316;28;20198;-78
2024/01/15 02:49:32;;;;;;;37.40;19.60;;;2.50;99.90;;;;;;5047522;28;20206;-79
2024/01/15 02:51:59;;;;;;;32.03;18.13;;;2.50;99.90;;;;;;5030562;28;20208;-78
2024/01/15 02:55:01;;;;;;;32.67;20.23;;;2.50;99.90;;;;;;5057627;28;20190;-78
2024/01/15 02:57:30;;;;;;;39.20;20.57;;;2.50;99.90;;;;;;5068211;28;20208;-78
2024/01/15 02:59:57;;;;;;;35.97;20.80;;;2.50;99.90;;;;;;5072967;28;20218;-78
2024/01/15 03:02:25;;;;;;;30.43;19.10;;;2.50;99.90;;;;;;5057212;28;20203;-79
2024/01/15 03:04:52;;;;;;;35.97;20.70;;;2.40;99.90;;;;;;5048252;28;20225;-79
2024/01/15 03:07:20;;;;;;;33.67;20.40;;;2.50;99.90;;;;;;5052900;28;20206;-78
2024/01/15 03:09:47;;;;;;;22.33;13.40;;;2.50;99.90;;;;;;5056644;28;20194;-78
2024/01/15 03:12:14;;;;;;;29.37;18.13;;;2.40;99.90;;;;;;5061481;28;20210;-78
2024/01/15 03:14:43;;;;;;;28.83;17.87;;;2.40;99.90;;;;;;5043721;28;20686;-78
2024/01/15 03:17:12;;;;;;;32.40;19.17;;;2.50;99.90;;;;;;5082785;28;20554;-79
2024/01/15 03:19:39;;;;;;;30.33;19.60;;;2.50;99.90;;;;;;5053322;28;20203;-78
2024/01/15 03:22:08;;;;;;;28.80;18.47;;;2.50;99.90;;;;;;5064869;28;20206;-80
2024/01/15 03:24:36;;;;;;;23.83;14.17;;;2.50;99.90;;;;;;5053709;28;20198;-78
2024/01/15 03:27:04;;;;;;;29.73;17.90;;;2.40;99.90;;;;;;5050767;28;20202;-78
2024/01/15 03:29:31;;;;;;;30.43;17.63;;;2.50;99.90;;;;;;5049083;28;20218;-78
2024/01/15 03:32:03;;;;;;;28.80;17.27;;;2.40;99.90;;;;;;5052783;28;20194;-80
2024/01/15 03:34:30;;;;;;;26.13;17.37;;;2.50;99.90;;;;;;5070711;28;20202;-78
2024/01/15 03:36:59;;;;;;;33.67;17.60;;;2.50;99.90;;;;;;5067866;28;20577;-78
2024/01/15 03:39:26;;;;;;;32.83;17.23;;;2.40;99.90;;;;;;5045645;28;20222;-78
2024/01/15 03:41:53;;;;;;;27.13;18.47;;;2.40;99.90;;;;;;5059522;28;20202;-79
2024/01/15 03:44:21;;;;;;;26.50;16.33;;;2.50;99.90;;;;;;5054485;28;20199;-78
2024/01/15 03:46:48;;;;;;;26.57;17.63;;;2.50;99.90;;;;;;5070841;28;20202;-78
2024/01/15 03:49:17;;;;;;;25.83;16.17;;;2.50;99.90;;;;;;5068163;28;20194;-78
2024/01/15 03:51:44;;;;;;;22.57;15.03;;;2.50;99.90;;;;;;5080051;28;20218;-78
2024/01/15 03:54:12;;;;;;;25.57;15.60;;;2.50;99.90;;;;;;5078358;28;20570;-79
2024/01/15 03:56:39;;;;;;;24.13;14.67;;;2.50;99.90;;;;;;5085444;28;20229;-78
2024/01/15 03:59:06;;;;;;;28.33;14.40;;;2.50;99.90;;;;;;5052772;28;20692;-79
2024/01/15 04:01:34;;;;;;;22.57;15.07;;;2.50;99.90;;;;;;5059268;28;20663;-79
2024/01/15 04:04:01;;;;;;;24.70;13.97;;;2.50;99.90;;;;;;5070233;28;20539;-79
2024/01/15 04:06:30;;;;;;;28.10;14.43;;;2.50;99.90;;;;;;5065614;28;20261;-79
2024/01/15 04:08:57;;;;;;;24.27;15.20;;;2.50;99.90;;;;;;5069668;28;20198;-78
2024/01/15 04:11:25;;;;;;;22.60;11.53;;;2.50;99.90;;;;;;5058959;28;20199;-78
2024/01/15 04:13:52;;;;;;;23.37;15.47;;;2.50;99.90;;;;;;5057999;28;20205;-78
2024/01/15 04:16:20;;;;;;;23.43;14.40;;;2.50;99.90;;;;;;5056403;28;20217;-78
2024/01/15 04:18:47;;;;;;;26.07;14.63;;;2.40;99.90;;;;;;5054361;28;20556;-78
2024/01/15 04:21:14;;;;;;;24.97;13.67;;;2.40;99.90;;;;;;5077809;28;20202;-79
2024/01/15 04:23:44;;;;;;;21.37;13.17;;;2.50;99.90;;;;;;5054469;28;20206;-79
2024/01/15 04:26:11;;;;;;;24.37;12.20;;;2.40;99.90;;;;;;5065037;28;20211;-78
2024/01/15 04:28:38;;;;;;;18.27;12.20;;;2.40;99.90;;;;;;5045548;28;20206;-78
2024/01/15 04:31:06;;;;;;;18.30;13.10;;;2.40;99.90;;;;;;5055867;28;20197;-80
2024/01/15 04:33:33;;;;;;;18.80;11.93;;;2.40;99.90;;;;;;5044765;28;20195;-78
2024/01/15 04:36:03;;;;;;;19.33;12.83;;;2.30;99.90;;;;;;5046369;28;20211;-78
2024/01/15 04:38:30;;;;;;;20.90;12.83;;;2.40;99.90;;;;;;5043174;28;20219;-79
2024/01/15 04:40:59;;;;;;;21.87;13.83;;;2.40;99.90;;;;;;5057415;28;20225;-78
2024/01/15 04:43:27;;;;;;;24.70;13.47;;;2.50;99.90;;;;;;5078474;22;20746;-75
2024/01/15 04:45:54;;;;;;;21.57;12.77;;;2.50;99.90;;;;;;5033267;28;20199;-77
2024/01/15 04:48:22;;;;;;;20.40;13.37;;;2.50;99.90;;;;;;5035019;28;20199;-77
2024/01/15 04:50:50;;;;;;;22.27;13.53;;;2.50;99.90;;;;;;5036480;28;20203;-77
2024/01/15 04:53:17;;;;;;;23.07;13.87;;;2.50;99.90;;;;;;5030440;28;20231;-77
2024/01/15 04:55:45;;;;;;;19.07;13.53;;;2.50;99.90;;;;;;5013675;28;20200;-77
2024/01/15 04:58:13;;;;;;;23.07;14.10;;;2.40;99.90;;;;;;5013828;28;20669;-77
2024/01/15 05:00:41;;;;;;;20.80;12.13;;;2.50;99.90;;;;;;5013962;28;20227;-77
2024/01/15 05:03:08;;;;;;;24.27;14.37;;;2.50;99.90;;;;;;5014028;28;20229;-77
2024/01/15 05:05:36;;;;;;;23.73;14.50;;;2.50;99.90;;;;;;5015154;28;20205;-77
2024/01/15 05:08:03;;;;;;;21.47;14.03;;;2.50;99.90;;;;;;5014127;28;20197;-77
2024/01/15 05:10:31;;;;;;;28.10;14.57;;;2.60;99.90;;;;;;5014898;28;20205;-78
2024/01/15 05:12:58;;;;;;;22.40;14.50;;;2.50;99.90;;;;;;5029686;28;20232;-77
2024/01/15 05:15:27;;;;;;;25.27;15.57;;;2.50;99.90;;;;;;5013047;28;20208;-77
2024/01/15 05:17:55;;;;;;;22.97;14.20;;;2.50;99.90;;;;;;5018151;28;20201;-77
2024/01/15 05:20:22;;;;;;;20.67;13.00;;;2.50;99.90;;;;;;5012746;28;20225;-77
2024/01/15 05:22:50;;;;;;;24.13;14.40;;;2.50;99.90;;;;;;5013109;28;20561;-77
2024/01/15 05:25:17;;;;;;;24.07;14.80;;;2.50;99.90;;;;;;5011312;28;20210;-77
2024/01/15 05:27:44;;;;;;;18.10;13.17;;;2.50;99.90;;;;;;5028205;28;20685;-77
2024/01/15 05:30:12;;;;;;;23.40;14.50;;;2.50;99.90;;;;;;5016735;28;20668;-78
2024/01/15 05:32:41;;;;;;;20.57;13.73;;;2.50;99.90;;;;;;5012625;28;20211;-77
2024/01/15 05:35:09;;;;;;;22.63;14.40;;;2.60;99.90;;;;;;5029308;28;20211;-75
2024/01/15 05:37:36;;;;;;;20.40;14.17;;;2.60;99.90;;;;;;5018337;28;20201;-75
2024/01/15 05:40:07;;;;;;;20.47;12.30;;;2.60;99.90;;;;;;5028481;28;20221;-75
2024/01/15 05:42:36;;;;;;;18.70;13.50;;;2.60;99.90;;;;;;5012043;28;20209;-75
2024/01/15 05:45:04;;;;;;;19.37;13.77;;;2.70;99.90;;;;;;5012898;28;20214;-75
2024/01/15 05:47:32;;;;;;;19.13;12.23;;;2.60;99.90;;;;;;5034903;28;20204;-77
2024/01/15 05:50:01;;;;;;;22.27;12.97;;;2.50;99.90;;;;;;5015556;28;20201;-78
2024/01/15 05:52:29;;;;;;;16.87;11.97;;;2.50;99.90;;;;;;5008147;28;20200;-77
2024/01/15 05:54:56;;;;;;;19.93;11.73;;;2.50;99.90;;;;;;5013086;28;20234;-77
2024/01/15 05:57:24;;;;;;;16.40;11.47;;;2.50;99.90;;;;;;5017143;28;20203;-78
2024/01/15 05:59:51;;;;;;;20.17;12.90;;;2.50;99.90;;;;;;5027911;28;20231;-77
2024/01/15 06:02:19;;;;;;;18.30;12.23;;;2.50;99.90;;;;;;5013491;28;20685;-77
2024/01/15 06:04:46;;;;;;;16.37;12.57;;;2.50;99.90;;;;;;5011662;28;20234;-78
2024/01/15 06:07:15;;;;;;;20.00;12.67;;;2.50;99.90;;;;;;5021751;28;20204;-77
2024/01/15 06:09:42;;;;;;;19.13;11.90;;;2.60;99.90;;;;;;5011574;28;20195;-77
2024/01/15 06:12:10;;;;;;;17.47;10.50;;;2.50;99.90;;;;;;5021816;28;20201;-77
2024/01/15 06:14:37;;;;;;;20.53;12.13;;;2.50;99.90;;;;;;5012700;28;20725;-77
2024/01/15 06:17:05;;;;;;;16.27;11.77;;;2.40;99.90;;;;;;5011883;28;20212;-77
2024/01/15 06:19:32;;;;;;;18.67;12.03;;;2.40;99.90;;;;;;5006382;28;20204;-77
2024/01/15 06:22:00;;;;;;;20.03;11.93;;;2.40;99.90;;;;;;5019917;28;20584;-77
2024/01/15 06:24:28;;;;;;;17.57;11.47;;;2.40;99.90;;;;;;5027761;28;20582;-77
2024/01/15 06:26:56;;;;;;;20.80;11.67;;;2.40;99.90;;;;;;5018652;28;20202;-77
2024/01/15 06:29:27;;;;;;;17.67;12.30;;;2.50;99.90;;;;;;5024289;28;20214;-77
2024/01/15 06:31:55;;;;;;;18.37;11.37;;;2.40;99.90;;;;;;5022191;28;20240;-77
2024/01/15 06:34:23;;;;;;;16.53;11.27;;;2.50;99.90;;;;;;5024132;28;20229;-78
2024/01/15 06:36:50;;;;;;;17.83;12.33;;;2.40;99.90;;;;;;5019103;28;20200;-77
2024/01/15 06:39:17;;;;;;;20.93;12.07;;;2.50;99.90;;;;;;5005520;28;20211;-77
2024/01/15 06:41:46;;;;;;;20.13;12.60;;;2.50;99.90;;;;;;5011100;28;20206;-77
2024/01/15 06:44:21;;;;;;;17.53;10.73;;;2.50;99.90;;;;;;5009312;28;20232;-77
2024/01/15 06:46:51;;;;;;;22.80;13.40;;;2.50;99.90;;;;;;5006643;28;20684;-77
2024/01/15 06:49:19;;;;;;;18.63;12.33;;;2.50;99.90;;;;;;5028096;28;20200;-77
2024/01/15 06:51:46;;;;;;;24.27;13.43;;;2.50;99.90;;;;;;5011565;28;20208;-79
2024/01/15 06:54:13;;;;;;;16.83;10.93;;;2.50;99.90;;;;;;5013408;28;20224;-79
2024/01/15 06:56:41;;;;;;;16.10;11.60;;;2.50;99.90;;;;;;5012396;28;20211;-78
2024/01/15 06:59:10;;;;;;;21.27;12.03;;;2.40;99.90;;;;;;5012931;28;20208;-78
2024/01/15 07:01:37;;;;;;;21.50;13.90;;;2.50;99.90;;;;;;5015297;28;20216;-78
2024/01/15 07:04:05;;;;;;;18.37;12.83;;;2.60;99.90;;;;;;5012254;28;20216;-79
2024/01/15 07:06:32;;;;;;;22.27;12.67;;;2.60;99.90;;;;;;5029176;28;20199;-78
2024/01/15 07:09:00;;;;;;;24.83;15.77;;;2.60;99.90;;;;;;5014694;28;20198;-78
2024/01/15 07:11:27;;;;;;;21.20;14.57;;;2.50;99.90;;;;;;5016040;28;20207;-77
2024/01/15 07:13:54;;;;;;;24.40;15.00;;;2.50;99.90;;;;;;5020230;28;20697;-78
2024/01/15 07:16:23;;;;;;;21.60;13.27;;;2.60;99.90;;;;;;5030287;28;20201;-78
2024/01/15 07:18:51;;;;;;;23.37;13.83;;;2.50;99.90;;;;;;5036033;28;20204;-78
2024/01/15 07:21:19;;;;;;;22.27;13.93;;;2.60;99.90;;;;;;5030520;28;20212;-79
2024/01/15 07:23:47;;;;;;;23.53;14.73;;;2.70;99.90;;;;;;5048913;28;20220;-79
2024/01/15 07:26:15;;;;;;;26.97;15.20;;;2.70;99.90;;;;;;5049499;28;20568;-79
2024/01/15 07:28:42;;;;;;;14.57;10.87;;;2.60;99.90;;;;;;5020455;28;20226;-77
2024/01/15 07:31:10;;;;;;;20.87;13.17;;;2.60;99.90;;;;;;5023976;28;20207;-77
2024/01/15 07:33:38;;;;;;;16.27;12.60;;;2.60;99.90;;;;;;5026900;28;20283;-77
2024/01/15 07:36:06;;;;;;;17.17;12.20;;;2.60;99.90;;;;;;5029591;28;20207;-79
2024/01/15 07:38:34;;;;;;;21.73;12.10;;;2.60;99.90;;;;;;5048133;28;20213;-79
2024/01/15 07:41:01;;;;;;;12.43;9.43;;;2.60;99.90;;;;;;5047924;28;20234;-79
2024/01/15 07:43:28;;;;;;;15.63;10.03;;;2.60;99.90;;;;;;5038612;28;20219;-79
2024/01/15 07:45:57;;;;;;;14.63;10.27;;;2.60;99.90;;;;;;5033343;28;20227;-79
2024/01/15 07:48:24;;;;;;;16.17;10.63;;;2.50;99.90;;;;;;5033061;28;20272;-79
2024/01/15 07:50:53;;;;;;;16.33;10.70;;;2.60;99.90;;;;;;5022987;28;20207;-79
2024/01/15 07:53:20;;;;;;;16.63;10.80;;;2.60;99.90;;;;;;5047251;28;20227;-79
2024/01/15 07:55:48;;;;;;;17.17;11.23;;;2.50;99.90;;;;;;5033107;28;20210;-79
2024/01/15 07:58:15;;;;;;;15.43;11.73;;;2.50;99.90;;;;;;5025554;28;20190;-79
2024/01/15 08:00:43;;;;;;;18.03;11.30;;;2.60;99.90;;;;;;5047916;28;20200;-79
2024/01/15 08:03:11;;;;;;;11.93;9.77;;;2.60;99.90;;;;;;5028653;28;20561;-79
2024/01/15 08:05:39;;;;;;;13.13;9.70;;;2.50;99.90;;;;;;5022469;28;20593;-79
2024/01/15 08:08:08;;;;;;;14.57;10.00;;;2.60;99.90;;;;;;5048189;28;20212;-79
2024/01/15 08:10:35;;;;;;;13.40;8.57;;;2.50;99.90;;;;;;5035886;28;20204;-79
2024/01/15 08:13:02;;;;;;;16.23;9.53;;;2.50;99.90;;;;;;5023953;28;20228;-78
2024/01/15 08:15:30;;;;;;;14.07;9.17;;;2.60;99.90;;;;;;5021359;28;20208;-78
2024/01/15 08:17:58;;;;;;;14.47;8.83;;;2.40;99.90;;;;;;5043652;28;20196;-78
2024/01/15 08:20:25;;;;;;;11.63;8.23;;;2.40;99.90;;;;;;5036088;28;20272;-78
2024/01/15 08:22:53;;;;;;;14.33;8.97;;;2.40;99.90;;;;;;5029553;28;20219;-78
2024/01/15 08:25:21;;;;;;;13.50;7.77;;;2.40;99.90;;;;;;5032162;28;20200;-78
2024/01/15 08:27:49;;;;;;;13.73;7.80;;;2.50;99.90;;;;;;5026722;28;20200;-78
2024/01/15 08:30:18;;;;;;;9.47;6.63;;;2.40;99.90;;;;;;5027048;28;20200;-78
2024/01/15 08:32:46;;;;;;;10.90;7.10;;;2.40;99.90;;;;;;5027909;28;20658;-78
2024/01/15 08:35:13;;;;;;;13.60;7.60;;;2.40;99.90;;;;;;5029685;28;20228;-78
2024/01/15 08:37:40;;;;;;;10.13;7.00;;;2.40;99.90;;;;;;5046830;28;20208;-79
2024/01/15 08:40:09;;;;;;;11.20;7.10;;;2.40;99.90;;;;;;5030590;28;20199;-78
2024/01/15 08:42:37;;;;;;;11.43;7.50;;;2.30;99.90;;;;;;5030656;28;20678;-79
2024/01/15 08:45:05;;;;;;;13.03;8.13;;;2.40;99.90;;;;;;5031724;28;20188;-79
2024/01/15 08:47:34;;;;;;;13.67;8.10;;;2.40;99.90;;;;;;5030807;28;20199;-79
2024/01/15 08:50:01;;;;;;;11.43;8.90;;;2.50;99.90;;;;;;5031353;28;20695;-79
2024/01/15 08:52:29;;;;;;;14.57;9.67;;;2.50;99.90;;;;;;5044674;28;20202;-79
2024/01/15 08:54:57;;;;;;;14.40;9.80;;;2.60;99.90;;;;;;5035804;28;20221;-79
2024/01/15 08:57:24;;;;;;;16.20;9.43;;;2.50;99.90;;;;;;5033151;28;20203;-79
2024/01/15 08:59:54;;;;;;;15.70;11.13;;;2.50;99.90;;;;;;5032979;28;20208;-79
2024/01/15 09:02:21;;;;;;;18.07;11.63;;;2.60;99.90;;;;;;5033452;28;20673;-79
2024/01/15 09:04:49;;;;;;;21.60;13.70;;;2.60;99.90;;;;;;5032588;28;20658;-77
2024/01/15 09:07:16;;;;;;;20.60;14.80;;;2.60;99.90;;;;;;5048332;28;20205;-77
2024/01/15 09:09:43;;;;;;;20.40;13.63;;;2.60;99.90;;;;;;5048227;28;20201;-77
2024/01/15 09:12:15;;;;;;;21.03;14.80;;;2.60;99.90;;;;;;5033650;28;20200;-78
2024/01/15 09:14:54;;;;;;;24.20;16.03;;;2.60;99.90;;;;;;5028464;28;20223;-78
2024/01/15 09:17:23;;;;;;;23.37;15.33;;;2.70;99.90;;;;;;5029608;28;20282;-78
2024/01/15 09:19:50;;;;;;;21.17;15.40;;;2.70;99.90;;;;;;5028711;28;20412;-77
2024/01/15 09:22:18;;;;;;;21.23;15.27;;;2.60;99.90;;;;;;5029511;28;20221;-77
2024/01/15 09:24:49;;;;;;;25.80;16.20;;;2.60;99.90;;;;;;5032114;28;20224;-77
2024/01/15 09:27:16;;;;;;;22.13;15.07;;;2.70;99.90;;;;;;5030503;28;20196;-77
2024/01/15 09:30:02;;;;;;;22.13;16.17;;;2.50;99.90;;;;;;5040030;28;20220;-77
2024/01/15 09:32:30;;;;;;;20.67;13.93;;;2.60;99.90;;;;;;5028949;28;20207;-78
2024/01/15 09:34:57;;;;;;;20.60;13.57;;;2.50;99.90;;;;;;5046430;28;20226;-78
2024/01/15 09:37:25;;;;;;;20.37;13.07;;;2.60;99.90;;;;;;5038991;28;20212;-78
2024/01/15 09:39:53;;;;;;;19.10;12.83;;;2.50;99.90;;;;;;5048683;28;20205;-77
2024/01/15 09:42:22;;;;;;;18.57;12.87;;;2.50;99.90;;;;;;5033583;28;20200;-77
2024/01/15 09:44:49;;;;;;;14.67;10.10;;;2.60;99.90;;;;;;5032355;28;20225;-77
2024/01/15 09:47:19;;;;;;;14.83;10.23;;;2.60;99.90;;;;;;5031401;28;20693;-77
2024/01/15 09:49:47;;;;;;;14.50;10.10;;;2.70;99.90;;;;;;5028011;28;20210;-78
2024/01/15 09:52:17;;;;;;;14.57;9.10;;;2.40;99.90;;;;;;5051817;28;20192;-77
2024/01/15 09:54:45;;;;;;;13.43;9.20;;;2.40;99.90;;;;;;5034012;28;20224;-77
2024/01/15 09:57:13;;;;;;;17.43;10.43;;;2.30;99.90;;;;;;5030273;28;20219;-77
2024/01/15 09:59:43;;;;;;;16.37;10.43;;;2.30;99.90;;;;;;5047882;28;20214;-77
2024/01/15 10:02:15;;;;;;;15.80;10.13;;;2.40;99.90;;;;;;5031574;28;20219;-77
2024/01/15 10:04:44;;;;;;;16.40;10.30;;;2.30;99.90;;;;;;5027221;28;20561;-79
2024/01/15 10:07:15;;;;;;;16.87;11.07;;;2.30;99.90;;;;;;5032083;28;20198;-77
2024/01/15 10:09:43;;;;;;;18.90;11.80;;;2.40;99.90;;;;;;5046939;28;20214;-77
2024/01/15 10:12:11;;;;;;;17.20;11.30;;;2.30;99.90;;;;;;5047540;28;20196;-77
2024/01/15 10:14:39;;;;;;;18.03;12.07;;;2.40;99.90;;;;;;5030541;28;20563;-77
2024/01/15 10:17:15;;;;;;;22.20;13.20;;;2.50;99.90;;;;;;5026044;28;20214;-77
2024/01/15 10:19:43;;;;;;;16.30;11.47;;;2.40;99.90;;;;;;5025864;28;20218;-77
2024/01/15 10:22:11;;;;;;;18.97;12.77;;;2.40;99.90;;;;;;5020813;28;20685;-78
2024/01/15 10:24:38;;;;;;;18.20;12.27;;;2.40;99.90;;;;;;5020468;28;20236;-78
2024/01/15 10:27:07;;;;;;;19.87;12.60;;;2.50;99.90;;;;;;5030225;28;20211;-78
2024/01/15 10:29:34;;;;;;;20.03;12.53;;;2.50;99.90;;;;;;5025459;28;20613;-79
2024/01/15 10:32:02;;;;;;;18.03;12.77;;;2.60;99.90;;;;;;5015335;28;20211;-78
2024/01/15 10:34:31;;;;;;;20.20;12.20;;;2.50;99.90;;;;;;5020764;28;20219;-79
2024/01/15 10:37:00;;;;;;;18.43;13.30;;;2.50;99.90;;;;;;5027550;28;20192;-79
2024/01/15 10:39:27;;;;;;;21.13;13.87;;;2.60;99.90;;;;;;5040513;28;20201;-80
2024/01/15 10:41:54;;;;;;;20.40;13.57;;;2.60;99.90;;;;;;5018997;28;20197;-80
2024/01/15 10:44:22;;;;;;;23.23;14.70;;;2.60;99.90;;;;;;5018462;28;20243;-80
2024/01/15 10:46:50;;;;;;;19.53;13.37;;;2.60;99.90;;;;;;5021927;28;20201;-79
2024/01/15 10:49:19;;;;;;;20.20;14.17;;;2.60;99.90;;;;;;5022150;28;20196;-80
2024/01/15 10:51:48;;;;;;;22.20;14.10;;;2.70;99.90;;;;;;5028717;28;20203;-80
2024/01/15 10:54:17;;;;;;;22.47;13.90;;;2.60;99.90;;;;;;5044027;28;20219;-79
2024/01/15 10:56:47;;;;;;;20.40;13.30;;;2.70;99.90;;;;;;5028415;28;20192;-80
2024/01/15 10:59:15;;;;;;;19.90;13.97;;;2.70;99.90;;;;;;5020903;28;20211;-79
2024/01/15 11:01:43;;;;;;;18.90;13.30;;;2.70;99.90;;;;;;5026331;28;20199;-80
2024/01/15 11:04:12;;;;;;;21.43;13.60;;;2.80;99.90;;;;;;5037711;28;20237;-79
2024/01/15 11:06:45;;;;;;;20.17;13.40;;;2.80;99.90;;;;;;5043520;28;20209;-79
2024/01/15 11:09:13;;;;;;;18.03;12.83;;;2.90;99.90;;;;;;5029333;28;20557;-79
2024/01/15 11:11:46;;;;;;;17.77;12.80;;;2.80;99.90;;;;;;5028707;28;20206;-80
2024/01/15 11:14:34;;;;;;;20.07;12.20;;;2.80;99.90;;;;;;5021309;28;20220;-79
2024/01/15 11:17:02;;;;;;;17.17;12.13;;;2.80;99.90;;;;;;5026752;28;20205;-80
2024/01/15 11:19:37;;;;;;;20.73;12.83;;;3.00;99.90;;;;;;5033847;28;20202;-79
2024/01/15 11:22:05;;;;;;;19.80;13.30;;;3.00;99.90;;;;;;5034106;28;20513;-80
2024/01/15 11:24:37;;;;;;;21.93;12.63;;;3.10;99.90;;;;;;5033047;28;20231;-79
2024/01/15 11:27:07;;;;;;;17.83;12.40;;;3.00;99.90;;;;;;5046515;28;20202;-79
2024/01/15 11:29:35;;;;;;;16.77;11.50;;;3.00;99.90;;;;;;5046755;28;20652;-79
2024/01/15 11:32:04;;;;;;;16.70;11.63;;;3.10;99.90;;;;;;5046684;28;20212;-79
2024/01/15 11:35:01;;;;;;;15.57;10.80;;;3.00;99.90;;;;;;5031651;28;20206;-79
2024/01/15 11:37:30;;;;;;;13.63;9.83;;;2.90;99.90;;;;;;5023241;28;20216;-79
2024/01/15 11:40:04;;;;;;;16.03;9.67;;;2.80;99.90;;;;;;5031627;28;20283;-79
2024/01/15 11:42:33;;;;;;;12.07;8.27;;;2.90;99.90;;;;;;5034218;28;20196;-79
2024/01/15 11:45:03;;;;;;;11.70;8.10;;;2.80;99.90;;;;;;5035114;28;20214;-79
2024/01/15 11:47:58;;;;;;;11.40;8.40;;;2.80;99.90;;;;;;5030650;28;20213;-79
2024/01/15 11:50:30;;;;;;;11.87;8.30;;;2.90;99.90;;;;;;5032781;28;20555;-79
2024/01/15 11:53:02;;;;;;;11.00;8.07;;;2.90;99.90;;;;;;5038124;28;20215;-79
2024/01/15 11:55:35;;;;;;;14.17;9.00;;;2.90;99.90;;;;;;5038744;28;20199;-79
2024/01/15 11:58:09;;;;;;;10.80;7.83;;;3.00;99.90;;;;;;5033438;28;20218;-79
2024/01/15 12:00:40;;;;;;;10.73;7.53;;;2.70;99.90;;;;;;5033616;28;20204;-79
2024/01/15 12:03:12;;;;;;;12.70;8.77;;;2.60;99.90;;;;;;5035026;28;20236;-79
2024/01/15 12:05:41;;;;;;;13.23;8.90;;;2.70;99.90;;;;;;5032827;28;20224;-79
2024/01/15 12:08:10;;;;;;;12.20;9.20;;;2.70;99.90;;;;;;5032242;28;20665;-79
2024/01/15 12:10:40;;;;;;;11.27;6.93;;;2.90;99.90;;;;;;5035013;28;20209;-79
2024/01/15 12:13:12;;;;;;;12.23;7.77;;;2.80;99.90;;;;;;5034018;28;20228;-79
2024/01/15 12:15:41;;;;;;;10.40;7.10;;;2.70;99.90;;;;;;5036207;28;20200;-78
2024/01/15 12:18:10;;;;;;;11.07;9.00;;;2.60;99.90;;;;;;5051218;28;20678;-79
2024/01/15 12:20:38;;;;;;;15.80;9.30;;;2.70;99.90;;;;;;5033922;28;20540;-79
2024/01/15 12:23:05;;;;;;;14.83;10.17;;;2.70;99.90;;;;;;5034346;28;20233;-79
2024/01/15 12:25:34;;;;;;;12.93;8.53;;;2.70;99.90;;;;;;5036095;28;20564;-79
2024/01/15 12:28:02;;;;;;;16.43;9.07;;;2.70;99.90;;;;;;5032547;28;20209;-79
2024/01/15 12:30:32;;;;;;;12.07;9.13;;;2.80;99.90;;;;;;5034272;28;20209;-79
2024/01/15 12:33:02;;;;;;;13.77;8.90;;;2.80;99.90;;;;;;5029826;28;20248;-79
2024/01/15 12:35:29;;;;;;;12.57;9.23;;;2.80;99.90;;;;;;5030753;28;20202;-79
2024/01/15 12:37:57;;;;;;;14.03;10.37;;;2.80;99.90;;;;;;5033665;28;20205;-79
2024/01/15 12:40:25;;;;;;;14.23;9.97;;;2.70;99.90;;;;;;5025880;28;20214;-79
2024/01/15 12:42:52;;;;;;;14.47;9.53;;;2.70;99.90;;;;;;5029048;28;20200;-79
2024/01/15 12:45:20;;;;;;;15.83;9.60;;;2.60;99.90;;;;;;5037227;28;20209;-79